»·PEaware :: N313KP KLBF-KAPA

N313KP :: KLBF-KAPA

FLIGHT INFORMATION

Flight Status: Arrived
Operator: Privately registered:
United States
More flights under this callsign
Pilot: Erik A. (17503)
Aircraft: BEECH AIRCRAFT BONANZA
(BE35)
More flights by this aircraft type
Origin: KLBF North Platte Regl-Bird
United States
Destination: KAPA Centennial
United States
More flights between these airports :: More routes between these airports
Route: +LBF V80 AKO V263 LIMEX V148 FQF HOHUM
File this flight plan on PilotEdge
Remarks:
Altitude:
(Current/Filed)
8,000ft
Speed:
(Current/Filed)
170kts
Departed: 03-Dec-18 03:17 PM
Arrived: 03-Dec-18 04:42 PM
Distance/Time
Traveled:
212nm/1:24
Distance/Time
To Go:
Arrived

Flight Plot

Page will automatically refresh every two minutes.

Flight plan parsing failed; only flown route is shown


Map Options




Map Legend


Flown Route
Filed Route
Departure Airport
Arrival Airport
Navaid (VOR, NDB)
Fix

Horizontal Profiles

Position Reports

Time Latitude Longitude Heading Altitude Ground
Speed
03-Dec-18 14:41 41.132378 -100.696919 265 2779ft 0kts
03-Dec-18 14:42 41.132378 -100.696919 265 2779ft 0kts
03-Dec-18 14:43 41.132378 -100.696919 265 2779ft 0kts
03-Dec-18 14:44 41.132378 -100.696919 265 2779ft 0kts
03-Dec-18 14:45 41.132378 -100.696919 265 2779ft 0kts
03-Dec-18 14:46 41.132378 -100.696920 265 2779ft 0kts
03-Dec-18 14:47 41.132378 -100.696922 265 2779ft 0kts
03-Dec-18 14:48 41.132378 -100.696924 265 2779ft 0kts
03-Dec-18 14:49 41.132377 -100.696926 265 2779ft 0kts
03-Dec-18 14:50 41.132377 -100.696929 265 2779ft 0kts
03-Dec-18 14:51 41.132377 -100.696931 265 2779ft 0kts
03-Dec-18 14:52 41.132377 -100.696934 265 2779ft 0kts
03-Dec-18 14:53 41.132377 -100.696936 265 2779ft 0kts
03-Dec-18 14:54 41.132377 -100.696939 265 2779ft 0kts
03-Dec-18 14:55 41.132376 -100.696942 265 2779ft 0kts
03-Dec-18 14:56 41.132376 -100.696944 265 2779ft 0kts
03-Dec-18 14:57 41.132376 -100.696947 265 2779ft 0kts
03-Dec-18 14:58 41.132376 -100.696950 265 2779ft 0kts
03-Dec-18 14:59 41.132376 -100.696952 265 2779ft 0kts
03-Dec-18 15:00 41.132376 -100.696955 265 2779ft 0kts
03-Dec-18 15:01 41.132375 -100.696958 265 2779ft 0kts
03-Dec-18 15:02 41.132375 -100.696961 265 2779ft 0kts
03-Dec-18 15:03 41.132375 -100.696963 265 2779ft 0kts
03-Dec-18 15:04 41.132375 -100.696966 265 2779ft 0kts
03-Dec-18 15:05 41.132375 -100.696969 265 2779ft 0kts
03-Dec-18 15:06 41.132375 -100.696971 265 2779ft 0kts
03-Dec-18 15:07 41.131515 -100.697143 156 2779ft 6kts
03-Dec-18 15:08 41.131135 -100.695511 87 2779ft 6kts
03-Dec-18 15:09 41.131126 -100.693158 90 2779ft 6kts
03-Dec-18 15:10 41.131484 -100.690781 37 2779ft 5kts
03-Dec-18 15:11 41.131570 -100.690692 38 2779ft 0kts
03-Dec-18 15:12 41.131571 -100.690691 38 2779ft 0kts
03-Dec-18 15:13 41.131573 -100.690689 38 2779ft 0kts
03-Dec-18 15:14 41.131575 -100.690687 38 2779ft 0kts
03-Dec-18 15:15 41.131611 -100.690649 38 2779ft 3kts
03-Dec-18 15:16 41.127832 -100.682265 124 2780ft 92kts
03-Dec-18 15:17 41.107137 -100.660723 188 3927ft 101kts
03-Dec-18 15:18 41.084795 -100.687224 219 5089ft 99kts
03-Dec-18 15:19 41.063725 -100.713078 232 6182ft 103kts
03-Dec-18 15:20 41.049617 -100.745229 236 7261ft 101kts
03-Dec-18 15:21 41.035461 -100.779100 251 8126ft 123kts
03-Dec-18 15:22 41.019202 -100.828020 249 8280ft 163kts
03-Dec-18 15:23 41.000137 -100.885676 252 8178ft 172kts
03-Dec-18 15:24 40.981020 -100.944790 251 8048ft 175kts
03-Dec-18 15:25 40.959679 -101.003133 245 7958ft 176kts
03-Dec-18 15:26 40.938830 -101.061194 247 7938ft 173kts
03-Dec-18 15:27 40.918958 -101.118991 251 8010ft 170kts
03-Dec-18 15:28 40.900675 -101.176443 246 8083ft 171kts
03-Dec-18 15:29 40.879405 -101.232393 247 8148ft 172kts
03-Dec-18 15:30 40.856853 -101.288461 244 8157ft 174kts
03-Dec-18 15:31 40.836486 -101.345478 247 8202ft 172kts
03-Dec-18 15:32 40.813096 -101.400567 246 8238ft 172kts
03-Dec-18 15:33 40.792444 -101.458663 249 8076ft 177kts
03-Dec-18 15:34 40.772743 -101.517996 250 7971ft 175kts
03-Dec-18 15:35 40.753018 -101.576972 250 7861ft 176kts
03-Dec-18 15:36 40.733797 -101.635835 253 7814ft 174kts
03-Dec-18 15:37 40.714939 -101.693921 252 7879ft 170kts
03-Dec-18 15:38 40.696461 -101.752054 249 7897ft 171kts
03-Dec-18 15:39 40.676610 -101.809679 251 7839ft 174kts
03-Dec-18 15:40 40.655744 -101.866942 249 7861ft 172kts
03-Dec-18 15:41 40.634932 -101.924186 249 7833ft 173kts
03-Dec-18 15:42 40.610437 -101.978964 235 7820ft 176kts
03-Dec-18 15:43 40.580146 -102.029409 236 7813ft 174kts
03-Dec-18 15:44 40.549025 -102.078712 236 7834ft 173kts
03-Dec-18 15:45 40.525081 -102.133559 246 7841ft 172kts
03-Dec-18 15:46 40.501315 -102.188244 245 7901ft 171kts
03-Dec-18 15:47 40.479858 -102.244327 246 7941ft 172kts
03-Dec-18 15:48 40.460959 -102.301796 251 7976ft 171kts
03-Dec-18 15:49 40.443303 -102.359928 249 8006ft 172kts
03-Dec-18 15:50 40.425444 -102.418065 252 8018ft 172kts
03-Dec-18 15:51 40.404799 -102.474996 244 8020ft 173kts
03-Dec-18 15:52 40.380598 -102.529608 245 8034ft 173kts
03-Dec-18 15:53 40.359913 -102.586660 245 8042ft 173kts
03-Dec-18 15:54 40.340970 -102.644553 253 8039ft 172kts
03-Dec-18 15:55 40.325023 -102.703651 250 8059ft 172kts
03-Dec-18 15:56 40.305639 -102.761358 246 8077ft 173kts
03-Dec-18 15:57 40.284384 -102.818032 244 8097ft 173kts
03-Dec-18 15:58 40.260155 -102.872859 243 8057ft 176kts
03-Dec-18 15:59 40.240171 -102.930902 251 8039ft 174kts
03-Dec-18 16:00 40.223601 -102.990302 247 8034ft 174kts
03-Dec-18 16:01 40.201233 -103.046878 241 8016ft 175kts
03-Dec-18 16:02 40.179665 -103.103842 248 8020ft 174kts
03-Dec-18 16:03 40.161312 -103.162481 249 8012ft 174kts
03-Dec-18 16:04 40.134347 -103.214411 224 7989ft 176kts
03-Dec-18 16:05 40.101054 -103.260915 233 8007ft 175kts
03-Dec-18 16:06 40.075044 -103.314661 239 8028ft 174kts
03-Dec-18 16:07 40.049241 -103.368553 235 8038ft 174kts
03-Dec-18 16:08 40.017238 -103.416459 226 8042ft 175kts
03-Dec-18 16:09 39.982636 -103.461307 227 8042ft 175kts
03-Dec-18 16:10 39.951235 -103.509794 231 8054ft 175kts
03-Dec-18 16:11 39.920164 -103.558663 227 8070ft 175kts
03-Dec-18 16:12 39.889371 -103.608196 235 8033ft 176kts
03-Dec-18 16:13 39.858893 -103.657929 229 8039ft 175kts
03-Dec-18 16:14 39.829072 -103.708098 233 8028ft 175kts
03-Dec-18 16:15 39.796733 -103.755745 227 8024ft 176kts
03-Dec-18 16:16 39.764322 -103.803312 230 8035ft 175kts
03-Dec-18 16:18 39.735254 -103.854408 234 8063ft 175kts
03-Dec-18 16:19 39.705261 -103.904149 230 8094ft 174kts
03-Dec-18 16:20 39.687737 -103.960097 267 8127ft 176kts
03-Dec-18 16:21 39.685990 -104.023501 259 8130ft 176kts
03-Dec-18 16:22 39.657716 -104.073487 225 8226ft 172kts
03-Dec-18 16:23 39.625313 -104.119253 226 8273ft 175kts
03-Dec-18 16:24 39.594147 -104.164555 226 8254ft 175kts
03-Dec-18 16:25 39.561764 -104.211968 226 8253ft 175kts
03-Dec-18 16:26 39.529230 -104.259608 228 8195ft 176kts
03-Dec-18 16:27 39.497280 -104.307752 226 8146ft 175kts
03-Dec-18 16:28 39.465430 -104.355932 229 8121ft 175kts
03-Dec-18 16:29 39.432758 -104.402657 228 8072ft 175kts
03-Dec-18 16:30 39.401221 -104.450041 230 8082ft 172kts
03-Dec-18 16:31 39.374161 -104.500198 264 8065ft 173kts
03-Dec-18 16:32 39.373698 -104.562034 267 8101ft 172kts
03-Dec-18 16:33 39.374534 -104.623977 270 8106ft 172kts
03-Dec-18 16:34 39.375251 -104.686080 272 8097ft 172kts
03-Dec-18 16:35 39.378022 -104.747788 272 8138ft 172kts
03-Dec-18 16:36 39.377719 -104.810151 267 8137ft 174kts
03-Dec-18 16:37 39.394772 -104.859948 356 8183ft 176kts
03-Dec-18 16:38 39.443577 -104.848735 11 8158ft 181kts
03-Dec-18 16:39 39.491908 -104.848004 358 7549ft 164kts
03-Dec-18 16:39 39.524650 -104.848854 357 6618ft 112kts
03-Dec-18 16:41 39.557218 -104.850218 355 5903ft 92kts
03-Dec-18 16:41 39.572146 -104.850715 37 5814ft 20kts
03-Dec-18 16:43 39.573570 -104.849802 30 5814ft 0kts
03-Dec-18 16:43 39.573968 -104.848956 111 5814ft 10kts
03-Dec-18 16:44 39.574225 -104.848182 332 5814ft 0kts
03-Dec-18 16:45 39.574226 -104.848182 332 5814ft 0kts

Navigation Log

Ident Type
Flight plan parsing failed, navigation log unavailable